Time;durP1;ratioP1;P1;durP2;ratioP2;P2;SDS_P1;SDS_P2;PMS_P1;PMS_P2;Temp;Humidity;BMP_temperature;BMP_pressure;BME280_temperature;BME280_humidity;BME280_pressure;Samples;Min_cycle;Max_cycle;Signal;HPM_P1;HPM_P2
2023/06/05 00:01:26;;;;;;;1.10;1.00;;;18.30;60.80;;;18.68;nan;100768.78;5019088;28;20659;-67
2023/06/05 00:03:53;;;;;;;1.20;1.20;;;18.20;60.90;;;18.67;nan;100775.06;5026273;28;20656;-68
2023/06/05 00:06:20;;;;;;;1.00;1.00;;;18.20;61.30;;;18.66;nan;100776.88;5026136;28;20645;-68
2023/06/05 00:08:47;;;;;;;1.00;1.00;;;18.20;61.30;;;18.65;nan;100774.41;5026510;28;20629;-67
2023/06/05 00:11:14;;;;;;;1.13;1.13;;;18.20;61.30;;;18.59;nan;100771.41;5025085;28;20656;-67
2023/06/05 00:13:41;;;;;;;1.67;1.20;;;18.10;61.40;;;18.55;nan;100771.88;5023261;28;20671;-67
2023/06/05 00:16:08;;;;;;;0.93;0.93;;;18.10;61.60;;;18.50;nan;100774.19;5032160;28;20647;-66
2023/06/05 00:18:35;;;;;;;1.30;1.20;;;18.00;61.80;;;18.44;nan;100770.31;5024573;28;21429;-67
2023/06/05 00:21:03;;;;;;;1.10;1.00;;;17.90;62.20;;;18.43;nan;100778.38;5019618;28;20660;-68
2023/06/05 00:23:30;;;;;;;1.23;1.13;;;17.90;62.40;;;18.37;nan;100773.75;5024623;28;20645;-67
2023/06/05 00:25:58;;;;;;;1.53;1.10;;;17.90;62.60;;;18.33;nan;100762.66;5032007;28;20916;-67
2023/06/05 00:28:25;;;;;;;1.17;1.17;;;17.80;62.80;;;18.29;nan;100761.28;5027312;28;20633;-67
2023/06/05 00:30:53;;;;;;;1.13;1.13;;;17.90;62.80;;;18.23;nan;100758.47;5031154;28;20655;-67
2023/06/05 00:33:20;;;;;;;1.40;1.30;;;17.80;62.70;;;18.16;nan;100758.28;5014955;28;20656;-67
2023/06/05 00:35:47;;;;;;;1.40;1.30;;;17.70;62.90;;;18.18;nan;100755.47;5030653;28;20620;-68
2023/06/05 00:38:14;;;;;;;1.00;1.00;;;17.70;62.90;;;18.13;nan;100758.56;5041083;28;20645;-65
2023/06/05 00:40:41;;;;;;;1.17;1.03;;;17.70;63.00;;;18.08;nan;100752.13;5023530;28;20665;-67
2023/06/05 00:43:08;;;;;;;2.80;0.90;;;17.60;63.40;;;18.07;nan;100764.47;5030984;28;20613;-68
2023/06/05 00:45:35;;;;;;;1.30;1.20;;;17.60;63.50;;;18.04;nan;100756.84;5021583;28;20642;-68
2023/06/05 00:48:03;;;;;;;7.00;1.30;;;17.60;63.80;;;18.01;nan;100751.91;5011717;28;20605;-68
2023/06/05 00:50:32;;;;;;;1.20;1.20;;;17.50;63.80;;;17.97;nan;100755.84;5017338;28;20669;-66
2023/06/05 00:53:01;;;;;;;1.07;1.03;;;17.50;63.80;;;17.94;nan;100761.41;5018358;28;20679;-68
2023/06/05 00:55:28;;;;;;;1.40;1.30;;;17.50;63.80;;;17.88;nan;100766.47;5029555;28;20647;-70
2023/06/05 00:57:56;;;;;;;1.30;1.10;;;17.40;63.90;;;17.84;nan;100760.69;5031953;28;21177;-67
2023/06/05 01:00:25;;;;;;;1.20;1.20;;;17.40;64.10;;;17.84;nan;100755.41;5021850;28;20682;-67
2023/06/05 01:02:53;;;;;;;1.07;1.07;;;17.40;64.00;;;17.84;nan;100766.78;5031686;28;20676;-67
2023/06/05 01:05:20;;;;;;;3.17;1.63;;;17.40;63.90;;;17.82;nan;100767.94;5029808;28;21179;-69
2023/06/05 01:07:49;;;;;;;0.83;0.83;;;17.40;63.90;;;17.80;nan;100759.34;5013120;28;20644;-65
2023/06/05 01:10:17;;;;;;;1.40;1.40;;;17.30;63.90;;;17.76;nan;100758.81;5031602;28;20660;-69
2023/06/05 01:12:53;;;;;;;1.23;1.23;;;17.30;64.10;;;17.72;nan;100761.88;5028167;28;20683;-68
2023/06/05 01:15:28;;;;;;;1.23;1.23;;;17.30;65.00;;;17.69;nan;100762.22;5029238;28;20631;-67
2023/06/05 01:17:58;;;;;;;1.23;1.07;;;17.20;64.20;;;17.69;nan;100762.22;5028399;28;20976;-69
2023/06/05 01:20:38;;;;;;;1.57;1.00;;;17.20;64.10;;;17.65;nan;100763.50;5018505;28;20742;-67
2023/06/05 01:23:07;;;;;;;1.23;1.20;;;17.20;64.50;;;17.65;nan;100766.94;5031349;28;20628;-70
2023/06/05 01:25:36;;;;;;;1.27;1.00;;;17.20;64.30;;;17.59;nan;100762.28;5030733;28;20651;-69
2023/06/05 01:28:30;;;;;;;1.13;1.00;;;17.20;64.30;;;17.58;nan;100765.91;5010781;28;20637;-68
2023/06/05 01:31:13;;;;;;;1.20;1.20;;;17.10;64.40;;;17.52;nan;100755.13;5018130;28;20677;-69
2023/06/05 01:33:51;;;;;;;1.27;1.17;;;17.10;64.40;;;17.45;nan;100761.97;5022331;28;21232;-67
2023/06/05 01:36:19;;;;;;;1.30;1.30;;;17.00;64.70;;;17.38;nan;100756.47;5016451;28;21186;-68
2023/06/05 01:38:48;;;;;;;1.07;1.07;;;17.00;65.00;;;17.37;nan;100760.09;5025311;28;20600;-68
2023/06/05 01:41:16;;;;;;;0.83;0.83;;;17.00;64.90;;;17.33;nan;100755.25;5027051;28;21223;-68
2023/06/05 01:43:47;;;;;;;1.10;1.10;;;16.90;65.00;;;17.29;nan;100757.34;5025376;28;20729;-68
2023/06/05 01:46:18;;;;;;;1.37;1.10;;;16.90;65.40;;;17.26;nan;100757.66;5029604;28;20651;-68
2023/06/05 01:48:45;;;;;;;1.50;1.33;;;16.80;65.40;;;17.27;nan;100761.16;5012529;28;20672;-68
2023/06/05 01:51:13;;;;;;;0.90;0.90;;;16.80;65.60;;;17.26;nan;100759.47;5015003;28;20688;-68
2023/06/05 01:53:40;;;;;;;1.00;0.90;;;16.80;65.60;;;17.20;nan;100755.63;5012591;28;20683;-70
2023/06/05 01:56:08;;;;;;;4.03;1.10;;;16.80;65.70;;;17.19;nan;100758.41;5026434;28;20609;-68
2023/06/05 01:58:36;;;;;;;1.03;1.03;;;16.80;66.00;;;17.16;nan;100754.28;5010410;28;20638;-67
2023/06/05 02:01:05;;;;;;;0.97;0.97;;;16.70;65.90;;;17.11;nan;100755.69;5017558;28;20669;-65
2023/06/05 02:03:32;;;;;;;1.00;0.90;;;16.70;66.10;;;17.08;nan;100752.38;5024979;28;21239;-67
2023/06/05 02:05:59;;;;;;;1.13;1.03;;;16.60;65.80;;;17.09;nan;100753.22;5021908;28;20641;-66
2023/06/05 02:08:28;;;;;;;0.90;0.90;;;16.60;65.80;;;17.05;nan;100754.50;5026943;28;20645;-68
2023/06/05 02:10:55;;;;;;;1.60;1.03;;;16.60;65.60;;;17.03;nan;100756.44;5019245;28;20671;-69
2023/06/05 02:13:24;;;;;;;1.20;1.00;;;16.60;65.30;;;17.02;nan;100747.69;5024736;28;20664;-66
2023/06/05 02:15:56;;;;;;;0.97;0.97;;;16.60;65.60;;;16.98;nan;100748.97;5026545;28;20609;-67
2023/06/05 02:18:25;;;;;;;0.97;0.97;;;16.50;66.00;;;17.00;nan;100754.09;5029052;28;20612;-69
2023/06/05 02:20:56;;;;;;;1.10;1.00;;;16.50;65.20;;;16.91;nan;100749.69;5030282;28;20640;-67
2023/06/05 02:23:23;;;;;;;1.97;0.80;;;16.60;65.20;;;16.89;nan;100752.50;5018113;28;20643;-66
2023/06/05 02:25:50;;;;;;;1.03;0.80;;;16.50;65.10;;;16.87;nan;100751.81;5013230;28;20672;-67
2023/06/05 02:28:19;;;;;;;1.60;0.80;;;16.40;65.30;;;16.83;nan;100747.81;5008523;28;20645;-66
2023/06/05 02:30:47;;;;;;;0.97;0.90;;;16.40;65.30;;;16.79;nan;100741.19;5011174;28;20665;-66
2023/06/05 02:33:15;;;;;;;1.00;0.87;;;16.40;65.30;;;16.76;nan;100740.66;5016555;28;21267;-69
2023/06/05 02:35:42;;;;;;;1.00;1.00;;;16.30;65.20;;;16.79;nan;100740.34;5031406;28;20993;-66
2023/06/05 02:38:12;;;;;;;1.20;1.20;;;16.30;65.00;;;16.74;nan;100739.94;5018280;28;20644;-69
2023/06/05 02:40:39;;;;;;;1.00;1.00;;;16.30;65.20;;;16.75;nan;100729.28;5026723;28;21050;-66
2023/06/05 02:43:08;;;;;;;0.97;0.97;;;16.40;65.00;;;16.75;nan;100733.72;5025676;28;20648;-67
2023/06/05 02:45:35;;;;;;;0.97;0.93;;;16.30;64.80;;;16.66;nan;100731.97;5031087;28;20632;-66
2023/06/05 02:48:02;;;;;;;0.80;0.80;;;16.30;65.00;;;16.65;nan;100739.03;5025572;28;20648;-65
2023/06/05 02:50:29;;;;;;;2.00;1.20;;;16.20;65.80;;;16.65;nan;100735.59;5014140;28;20660;-67
2023/06/05 02:52:56;;;;;;;1.10;1.10;;;16.20;65.30;;;16.65;nan;100739.03;5026727;28;20676;-65
2023/06/05 02:55:29;;;;;;;1.47;1.37;;;16.20;65.40;;;16.63;nan;100740.97;5029068;28;20713;-66
2023/06/05 02:57:57;;;;;;;0.97;0.90;;;16.20;65.40;;;16.61;nan;100737.66;5028522;28;20604;-68
2023/06/05 03:00:26;;;;;;;0.97;0.90;;;16.20;65.50;;;16.59;nan;100744.88;5025631;28;21032;-66
2023/06/05 03:02:53;;;;;;;1.10;1.00;;;16.10;65.60;;;16.53;nan;100737.56;5010260;28;20629;-69
2023/06/05 03:05:24;;;;;;;0.87;0.87;;;16.10;66.00;;;16.52;nan;100737.72;5009106;28;20625;-67
2023/06/05 03:07:53;;;;;;;1.20;1.10;;;16.10;65.90;;;16.52;nan;100748.25;5008478;28;20990;-65
2023/06/05 03:10:21;;;;;;;1.03;1.00;;;16.10;66.00;;;16.53;nan;100745.47;5008412;28;20661;-67
2023/06/05 03:12:48;;;;;;;0.90;0.90;;;16.10;66.00;;;16.52;nan;100743.00;5021499;28;20668;-66
2023/06/05 03:15:17;;;;;;;1.30;0.83;;;16.10;66.10;;;16.49;nan;100745.88;5029554;28;20625;-68
2023/06/05 03:17:45;;;;;;;0.90;0.90;;;16.10;66.90;;;16.44;nan;100748.94;5015407;28;20648;-66
2023/06/05 03:20:13;;;;;;;0.93;0.80;;;16.00;66.80;;;16.42;nan;100750.06;5009969;28;20665;-67
2023/06/05 03:22:40;;;;;;;0.80;0.80;;;16.00;66.80;;;16.38;nan;100746.88;5014121;28;20624;-68
2023/06/05 03:25:08;;;;;;;1.13;0.80;;;16.00;66.60;;;16.39;nan;100750.34;5015334;28;20653;-67
2023/06/05 03:27:35;;;;;;;0.83;0.83;;;16.00;66.50;;;16.38;nan;100752.16;5013989;28;20637;-66
2023/06/05 03:30:04;;;;;;;1.37;1.00;;;16.00;66.50;;;16.39;nan;100747.72;5032075;28;20663;-67
2023/06/05 03:32:32;;;;;;;0.90;0.90;;;16.00;66.30;;;16.37;nan;100733.88;5029654;28;20709;-66
2023/06/05 03:34:59;;;;;;;0.80;0.80;;;15.90;66.30;;;16.37;nan;100741.78;5033899;28;21219;-67
2023/06/05 03:37:26;;;;;;;0.87;0.87;;;16.00;66.20;;;16.36;nan;100743.56;5027128;28;20637;-69
2023/06/05 03:39:53;;;;;;;0.87;0.87;;;15.90;66.30;;;16.38;nan;100749.53;5031378;28;20604;-65
2023/06/05 03:42:20;;;;;;;0.80;0.80;;;16.00;66.40;;;16.33;nan;100749.94;5029864;28;20643;-67
2023/06/05 03:44:47;;;;;;;1.10;1.10;;;15.90;66.10;;;16.36;nan;100756.72;5013214;28;20623;-68
2023/06/05 03:47:14;;;;;;;0.80;0.80;;;15.90;66.20;;;16.39;nan;100753.00;5012417;28;20680;-70
2023/06/05 03:49:47;;;;;;;1.00;0.90;;;16.00;66.30;;;16.46;nan;100754.88;5032363;28;20641;-67
2023/06/05 03:52:14;;;;;;;3.13;1.13;;;16.00;66.40;;;16.56;nan;100755.72;5030923;28;20645;-66
2023/06/05 03:54:44;;;;;;;1.27;1.17;;;16.10;66.10;;;16.62;nan;100749.88;5019558;28;20680;-66
2023/06/05 03:57:14;;;;;;;0.80;0.80;;;16.20;66.20;;;16.66;nan;100756.50;5032890;28;20597;-66
2023/06/05 03:59:43;;;;;;;1.07;1.07;;;16.20;65.80;;;16.70;nan;100757.88;5024229;28;20655;-67
2023/06/05 04:02:10;;;;;;;1.07;0.97;;;16.30;65.80;;;16.76;nan;100752.00;5030519;28;20616;-69
2023/06/05 04:04:37;;;;;;;0.90;0.90;;;16.30;65.80;;;16.88;nan;100761.41;5016976;28;20629;-68
2023/06/05 04:07:05;;;;;;;2.23;0.80;;;16.40;65.70;;;17.04;nan;100758.94;5021462;28;20620;-69
2023/06/05 04:09:32;;;;;;;0.60;0.60;;;16.60;65.50;;;17.20;nan;100760.06;5013728;28;20719;-66
2023/06/05 04:11:59;;;;;;;0.97;0.97;;;16.80;65.10;;;17.33;nan;100760.53;5011825;28;20735;-67
2023/06/05 04:14:26;;;;;;;1.00;1.00;;;16.90;64.60;;;17.50;nan;100762.38;5024935;28;21223;-66
2023/06/05 04:16:53;;;;;;;1.37;0.90;;;17.10;64.50;;;17.58;nan;100759.81;5031825;28;20640;-66
2023/06/05 04:19:20;;;;;;;1.50;1.10;;;17.20;64.20;;;17.70;nan;100758.56;5015423;28;20641;-67
2023/06/05 04:21:47;;;;;;;1.07;1.00;;;17.30;63.80;;;17.82;nan;100762.66;5031651;28;20660;-66
2023/06/05 04:24:14;;;;;;;1.00;1.00;;;17.40;63.40;;;17.93;nan;100762.38;5027718;28;20647;-67
2023/06/05 04:26:41;;;;;;;1.47;1.17;;;17.50;63.20;;;18.06;nan;100777.84;5024915;28;21266;-67
2023/06/05 04:29:18;;;;;;;1.10;1.10;;;17.60;63.00;;;18.12;nan;100767.47;5028416;28;21449;-66
2023/06/05 04:31:47;;;;;;;0.80;0.80;;;17.70;63.00;;;18.25;nan;100767.88;5031570;28;21266;-67
2023/06/05 04:34:17;;;;;;;0.77;0.77;;;17.80;62.70;;;18.34;nan;100766.13;5023232;28;21298;-66
2023/06/05 04:36:49;;;;;;;0.93;0.93;;;17.90;62.80;;;18.48;nan;100776.94;5016254;28;20616;-73
2023/06/05 04:39:18;;;;;;;1.27;1.10;;;18.00;63.30;;;18.59;nan;100771.41;5026543;28;21012;-69
2023/06/05 04:41:46;;;;;;;1.03;1.03;;;18.20;62.40;;;18.72;nan;100765.66;5030592;28;20652;-66
2023/06/05 04:44:20;;;;;;;0.93;0.90;;;18.30;62.30;;;18.87;nan;100772.00;5027616;28;20631;-66
2023/06/05 04:46:47;;;;;;;1.30;1.20;;;18.40;61.90;;;19.00;nan;100776.84;5023341;28;20644;-67
2023/06/05 04:49:16;;;;;;;1.27;1.17;;;18.60;61.80;;;19.02;nan;100774.84;5023919;28;20965;-69
2023/06/05 04:51:43;;;;;;;1.40;1.30;;;18.60;61.80;;;19.16;nan;100771.59;5010707;28;21260;-66
2023/06/05 04:54:11;;;;;;;1.30;1.20;;;18.70;61.70;;;19.21;nan;100774.56;5031357;28;20674;-66
2023/06/05 04:56:39;;;;;;;1.03;1.03;;;18.80;61.60;;;19.36;nan;100778.28;5034991;28;20615;-66
2023/06/05 04:59:06;;;;;;;0.90;0.90;;;19.00;61.50;;;19.48;nan;100776.16;5027134;28;20636;-70
2023/06/05 05:01:33;;;;;;;1.17;1.17;;;19.00;61.10;;;19.66;nan;100774.16;5027875;28;20656;-68
2023/06/05 05:04:00;;;;;;;0.80;0.80;;;19.30;60.90;;;19.77;nan;100772.03;5031804;28;20624;-69
2023/06/05 05:06:27;;;;;;;1.40;1.30;;;19.40;60.70;;;19.82;nan;100777.66;5021090;28;20699;-68
2023/06/05 05:08:54;;;;;;;0.80;0.80;;;19.40;60.70;;;20.03;nan;100777.16;5022872;28;20650;-70
2023/06/05 05:11:22;;;;;;;1.10;1.10;;;19.60;60.80;;;20.19;nan;100774.47;5027437;28;20701;-67
2023/06/05 05:13:49;;;;;;;0.87;0.87;;;19.80;60.10;;;20.34;nan;100783.41;5020216;28;21085;-69
2023/06/05 05:16:16;;;;;;;0.70;0.70;;;19.90;59.90;;;20.50;nan;100786.03;5030830;28;20628;-68
2023/06/05 05:18:44;;;;;;;1.10;1.10;;;20.00;59.80;;;20.67;nan;100784.97;5016675;28;20638;-69
2023/06/05 05:21:11;;;;;;;1.37;0.93;;;20.20;59.70;;;20.87;nan;100796.81;5017231;28;20667;-68
2023/06/05 05:23:38;;;;;;;1.67;1.27;;;20.40;59.40;;;21.04;nan;100794.94;5028886;28;20652;-68
2023/06/05 05:26:06;;;;;;;1.00;1.00;;;20.60;59.30;;;21.25;nan;100789.03;5024351;28;20632;-67
2023/06/05 05:28:33;;;;;;;1.00;1.00;;;20.80;59.10;;;21.47;nan;100786.38;5022346;28;20651;-68
2023/06/05 05:31:00;;;;;;;0.87;0.87;;;21.00;58.90;;;21.60;nan;100794.59;5029884;28;20675;-71
2023/06/05 05:33:27;;;;;;;1.30;1.03;;;21.20;58.70;;;21.82;nan;100782.34;5024218;28;20715;-68
2023/06/05 05:35:55;;;;;;;1.30;1.20;;;21.30;58.50;;;22.02;nan;100788.78;5028556;28;21246;-73
2023/06/05 05:38:22;;;;;;;1.30;1.20;;;21.50;58.00;;;22.24;nan;100789.75;5028401;28;20635;-67
2023/06/05 05:40:49;;;;;;;1.07;1.07;;;21.70;57.80;;;22.39;nan;100783.44;5012265;28;20684;-71
2023/06/05 05:43:18;;;;;;;1.00;1.00;;;21.90;57.40;;;22.60;nan;100787.22;5011275;28;20648;-68
2023/06/05 05:45:45;;;;;;;1.00;0.97;;;22.10;57.20;;;22.86;nan;100792.88;5011643;28;20602;-71
2023/06/05 05:48:12;;;;;;;1.00;1.00;;;22.40;56.70;;;23.13;nan;100795.69;5010333;28;20651;-68
2023/06/05 05:50:40;;;;;;;1.23;1.13;;;22.60;56.20;;;23.24;nan;100804.19;5026570;28;20648;-69
2023/06/05 05:53:07;;;;;;;1.03;0.90;;;22.70;55.70;;;23.23;nan;100792.72;5009210;28;21015;-71
2023/06/05 05:55:34;;;;;;;1.87;1.40;;;22.80;55.90;;;23.47;nan;100789.72;5023841;28;20663;-68
2023/06/05 05:58:01;;;;;;;1.30;1.30;;;23.00;55.60;;;23.60;nan;100795.19;5021243;28;20635;-70
2023/06/05 06:00:28;;;;;;;1.17;1.07;;;23.10;55.10;;;23.77;nan;100801.06;5027940;28;21042;-69
2023/06/05 06:02:55;;;;;;;0.97;0.97;;;23.30;55.10;;;23.90;nan;100796.69;5028010;28;20648;-67
2023/06/05 06:05:22;;;;;;;1.20;0.93;;;23.40;54.80;;;24.13;nan;100788.47;5024611;28;20631;-68
2023/06/05 06:07:49;;;;;;;2.30;0.90;;;23.60;54.70;;;24.44;nan;100786.25;5029282;28;20633;-68
2023/06/05 06:10:16;;;;;;;1.13;1.13;;;23.90;54.20;;;24.67;nan;100793.94;5021252;28;20738;-69
2023/06/05 06:12:45;;;;;;;1.20;1.20;;;24.10;54.00;;;25.04;nan;100795.38;5028455;28;20632;-68
2023/06/05 06:15:12;;;;;;;1.40;1.30;;;24.40;53.70;;;25.05;nan;100791.69;5027665;28;20652;-69
2023/06/05 06:17:39;;;;;;;1.30;1.20;;;24.50;53.90;;;25.25;nan;100787.22;5009940;28;20618;-68
2023/06/05 06:20:09;;;;;;;1.30;1.20;;;24.70;53.40;;;25.71;nan;100790.00;5009760;28;20661;-69
2023/06/05 06:22:36;;;;;;;0.90;0.90;;;25.10;53.40;;;26.25;nan;100803.19;5009638;28;20649;-69
2023/06/05 06:25:03;;;;;;;1.53;1.40;;;25.60;52.50;;;26.65;nan;100791.34;5019156;28;20635;-69
2023/06/05 06:27:30;;;;;;;1.00;1.00;;;26.00;51.90;;;27.01;nan;100796.19;5018598;28;20651;-69
2023/06/05 06:30:02;;;;;;;1.10;1.10;;;26.40;51.20;;;27.33;nan;100795.19;5009481;28;20621;-69
2023/06/05 06:32:29;;;;;;;1.27;1.27;;;26.70;50.90;;;27.65;nan;100797.72;5009410;28;20679;-69
2023/06/05 06:34:57;;;;;;;1.47;1.10;;;27.10;50.50;;;28.06;nan;100801.75;5021538;28;21047;-68
2023/06/05 06:37:24;;;;;;;1.30;1.30;;;27.50;50.30;;;28.41;nan;100800.97;5014493;28;20621;-70
2023/06/05 06:39:51;;;;;;;1.50;1.30;;;27.90;49.60;;;28.88;nan;100807.50;5012498;28;20703;-71
2023/06/05 06:42:18;;;;;;;0.83;0.83;;;28.30;48.50;;;29.24;nan;100811.22;5008771;28;20637;-73
2023/06/05 06:44:45;;;;;;;0.93;0.90;;;28.70;48.00;;;29.33;nan;100815.19;5013257;28;20668;-70
2023/06/05 06:47:12;;;;;;;3.10;1.23;;;29.00;47.50;;;29.92;nan;100812.50;5018818;28;21100;-71
2023/06/05 06:49:40;;;;;;;1.10;1.00;;;29.30;47.50;;;30.58;nan;100812.94;5015639;28;20644;-71
2023/06/05 06:52:07;;;;;;;1.23;1.10;;;30.10;46.80;;;31.09;nan;100816.75;5022527;28;20672;-72
2023/06/05 06:54:35;;;;;;;1.10;1.10;;;30.90;45.00;;;31.47;nan;100819.66;5009403;28;20669;-73
2023/06/05 06:57:02;;;;;;;1.07;1.07;;;31.00;45.20;;;31.75;nan;100816.91;5010961;28;20644;-75
2023/06/05 06:59:29;;;;;;;1.07;0.90;;;31.40;44.60;;;32.11;nan;100819.13;5028369;28;20629;-72
2023/06/05 07:02:17;;;;;;;1.30;1.30;;;31.70;44.60;;;32.73;nan;100819.75;5023471;28;21243;-69
2023/06/05 07:04:45;;;;;;;1.00;1.00;;;32.30;44.50;;;33.18;nan;100816.00;5014198;28;20625;-73
2023/06/05 07:07:17;;;;;;;1.20;1.20;;;32.80;43.40;;;33.36;nan;100819.16;5027308;28;20633;-70
2023/06/05 07:09:45;;;;;;;1.10;1.10;;;33.00;43.50;;;33.83;nan;100818.53;5029173;28;21234;-70
2023/06/05 07:12:15;;;;;;;1.00;1.00;;;33.30;43.20;;;34.37;nan;100822.75;5018866;28;20659;-70
2023/06/05 07:14:42;;;;;;;1.30;1.30;;;33.70;42.70;;;34.55;nan;100813.38;5030114;28;20636;-69
2023/06/05 07:17:09;;;;;;;1.47;1.13;;;34.10;42.50;;;34.93;nan;100813.81;5026258;28;21206;-68
2023/06/05 07:19:36;;;;;;;2.03;1.47;;;34.40;42.30;;;35.25;nan;100818.25;5027407;28;21179;-68
2023/06/05 07:22:05;;;;;;;1.37;1.27;;;34.70;41.80;;;35.39;nan;100820.22;5007883;28;20666;-68
2023/06/05 07:24:38;;;;;;;1.20;1.20;;;35.00;41.50;;;35.48;nan;100820.53;5009747;28;20594;-67
2023/06/05 07:27:06;;;;;;;1.50;1.40;;;35.30;41.10;;;35.42;nan;100821.56;5013225;28;20642;-67
2023/06/05 07:29:33;;;;;;;1.20;1.20;;;35.20;40.90;;;35.95;nan;100823.03;5027076;28;20670;-68
2023/06/05 07:32:00;;;;;;;1.30;1.30;;;35.50;40.90;;;36.66;nan;100826.41;5015692;28;21287;-68
2023/06/05 07:34:27;;;;;;;1.63;1.60;;;36.20;40.50;;;36.92;nan;100817.91;5016820;28;21246;-69
2023/06/05 07:36:57;;;;;;;1.50;1.40;;;36.50;40.20;;;37.37;nan;100813.31;5028559;28;20585;-68
2023/06/05 07:39:24;;;;;;;1.40;1.30;;;36.90;39.90;;;37.75;nan;100824.19;5018539;28;20629;-68
2023/06/05 07:41:52;;;;;;;5.93;1.40;;;37.20;39.40;;;37.12;nan;100815.06;5009789;28;20638;-70
2023/06/05 07:44:21;;;;;;;1.13;1.13;;;37.10;39.40;;;37.81;nan;100822.25;5022491;28;20644;-68
2023/06/05 07:46:50;;;;;;;1.87;1.87;;;37.40;39.60;;;38.33;nan;100811.44;5008484;28;20629;-68
2023/06/05 07:49:18;;;;;;;1.70;1.60;;;37.90;39.10;;;38.62;nan;100822.25;5016300;28;20640;-68
2023/06/05 07:51:50;;;;;;;1.50;1.40;;;38.20;39.20;;;38.48;nan;100815.88;5008213;28;20677;-68
2023/06/05 07:54:18;;;;;;;1.20;1.20;;;38.20;38.80;;;38.46;nan;100818.09;5017367;28;21211;-68
2023/06/05 07:56:48;;;;;;;1.50;1.50;;;38.30;38.50;;;38.38;nan;100813.25;5022941;28;20694;-72
2023/06/05 07:59:17;;;;;;;1.37;1.37;;;38.30;38.10;;;38.60;nan;100819.00;5012358;28;20636;-71
2023/06/05 08:01:45;;;;;;;1.80;1.70;;;38.50;38.10;;;38.98;nan;100817.19;5010867;28;20687;-68
2023/06/05 08:04:12;;;;;;;1.50;1.40;;;38.70;38.00;;;39.10;nan;100810.16;5015697;28;20640;-70
2023/06/05 08:06:40;;;;;;;1.50;1.40;;;38.80;38.00;;;39.37;nan;100807.63;5026403;28;20615;-67
2023/06/05 08:09:09;;;;;;;2.07;1.50;;;39.20;37.30;;;39.48;nan;100811.84;5024683;28;20632;-68
2023/06/05 08:11:37;;;;;;;1.60;1.60;;;39.30;37.30;;;39.54;nan;100802.44;5023962;28;20672;-71
2023/06/05 08:14:08;;;;;;;2.13;1.90;;;39.40;37.40;;;39.82;nan;100806.09;5022317;28;21194;-71
2023/06/05 08:16:35;;;;;;;1.50;1.50;;;39.60;37.40;;;39.77;nan;100810.81;5027953;28;20630;-68
2023/06/05 08:19:03;;;;;;;1.40;1.33;;;39.70;37.10;;;39.93;nan;100804.00;5018967;28;20636;-68
2023/06/05 08:21:30;;;;;;;1.47;1.47;;;39.80;36.90;;;40.10;nan;100804.25;5026701;28;20656;-69
2023/06/05 08:23:57;;;;;;;1.30;1.30;;;40.00;36.80;;;40.30;nan;100806.59;5010503;28;21473;-69
2023/06/05 08:26:25;;;;;;;1.40;1.30;;;40.20;36.70;;;40.33;nan;100803.25;5012473;28;20655;-71
2023/06/05 08:28:53;;;;;;;1.37;1.37;;;40.40;36.50;;;40.21;nan;100803.75;5024276;28;20637;-70
2023/06/05 08:31:20;;;;;;;1.50;1.50;;;40.40;36.80;;;40.62;nan;100803.78;5017084;28;20661;-68
2023/06/05 08:33:48;;;;;;;1.40;1.30;;;40.60;36.70;;;40.66;nan;100796.59;5022723;28;20637;-68
2023/06/05 08:36:16;;;;;;;2.10;1.40;;;40.80;36.00;;;40.76;nan;100796.34;5016581;28;20668;-68
2023/06/05 08:38:44;;;;;;;1.40;1.40;;;40.70;36.00;;;40.67;nan;100795.47;5023538;28;20629;-67
2023/06/05 08:41:16;;;;;;;1.97;1.97;;;40.60;36.30;;;40.47;nan;100793.16;5021780;28;21259;-69
2023/06/05 08:43:44;;;;;;;3.37;2.00;;;40.40;36.20;;;40.32;nan;100787.97;5028252;28;20614;-71
2023/06/05 08:46:13;;;;;;;1.90;1.70;;;40.40;36.20;;;40.87;nan;100789.59;5022554;28;20663;-68
2023/06/05 08:48:45;;;;;;;1.13;1.13;;;40.70;35.80;;;41.45;nan;100797.00;5010660;28;20641;-70
2023/06/05 08:51:15;;;;;;;1.47;1.47;;;41.20;36.70;;;41.83;nan;100797.47;5014828;28;20704;-69
2023/06/05 08:54:12;;;;;;;1.50;1.40;;;41.70;35.40;;;41.82;nan;100787.63;5011945;28;21000;-69
2023/06/05 08:56:43;;;;;;;2.23;2.10;;;42.00;35.50;;;42.06;nan;100794.41;5010221;28;20644;-70
2023/06/05 08:59:14;;;;;;;2.10;2.00;;;42.10;35.50;;;41.70;nan;100786.25;5012240;28;20628;-69
2023/06/05 09:01:43;;;;;;;1.40;1.40;;;41.80;35.20;;;41.39;nan;100788.13;5012175;28;20649;-69
2023/06/05 09:04:11;;;;;;;1.30;1.30;;;41.60;35.40;;;41.11;nan;100783.84;5010748;28;20633;-68
2023/06/05 09:06:39;;;;;;;1.67;1.67;;;41.40;35.40;;;41.43;nan;100780.91;5012304;28;20609;-69
2023/06/05 09:09:07;;;;;;;1.90;1.90;;;41.50;35.50;;;41.59;nan;100771.16;5017548;28;20632;-70
2023/06/05 09:11:35;;;;;;;2.00;1.90;;;41.70;35.40;;;41.49;nan;100776.09;5022082;28;20695;-67
2023/06/05 09:14:02;;;;;;;1.87;1.77;;;41.60;35.40;;;41.56;nan;100771.00;5011593;28;20593;-70
2023/06/05 09:16:43;;;;;;;2.03;1.93;;;41.70;35.20;;;41.91;nan;100775.59;5021828;28;21056;-71
2023/06/05 09:19:11;;;;;;;1.50;1.50;;;41.90;35.30;;;42.42;nan;100778.53;5014408;28;20644;-69
2023/06/05 09:21:39;;;;;;;1.97;1.80;;;42.30;35.10;;;42.60;nan;100775.88;5025924;28;21016;-69
2023/06/05 09:24:21;;;;;;;1.70;1.70;;;42.70;35.00;;;41.81;nan;100773.09;5024857;28;21285;-69
2023/06/05 09:26:52;;;;;;;1.53;1.53;;;42.20;34.80;;;42.10;nan;100769.91;5021950;28;20681;-73
2023/06/05 09:29:25;;;;;;;2.10;2.00;;;42.20;35.00;;;42.27;nan;100768.03;5009764;28;20637;-70
2023/06/05 09:32:03;;;;;;;1.90;1.83;;;42.40;35.70;;;42.44;nan;100773.56;5014724;28;20653;-69
2023/06/05 09:34:33;;;;;;;1.80;1.80;;;42.60;34.90;;;42.38;nan;100769.34;5021820;28;20637;-69
2023/06/05 09:37:04;;;;;;;2.47;2.37;;;42.60;35.00;;;41.96;nan;100769.97;5028949;28;20735;-72
2023/06/05 09:39:39;;;;;;;1.80;1.80;;;42.30;35.20;;;42.43;nan;100765.63;5022387;28;20613;-69
2023/06/05 09:42:07;;;;;;;2.43;2.33;;;42.50;35.20;;;42.60;nan;100757.47;5022204;28;20654;-69
2023/06/05 09:44:35;;;;;;;1.87;1.87;;;42.70;35.20;;;42.64;nan;100758.44;5018441;28;20644;-68
2023/06/05 09:47:09;;;;;;;1.97;1.97;;;42.80;35.10;;;42.30;nan;100752.84;5012518;28;20644;-72
2023/06/05 09:49:39;;;;;;;2.03;2.00;;;42.60;35.10;;;42.52;nan;100755.53;5012918;28;20641;-71
2023/06/05 09:52:08;;;;;;;2.00;2.00;;;42.50;35.30;;;41.97;nan;100738.69;5028905;28;20679;-69
2023/06/05 09:54:44;;;;;;;1.80;1.70;;;42.30;35.50;;;41.72;nan;100742.13;5026828;28;20621;-68
2023/06/05 09:57:13;;;;;;;2.03;1.93;;;41.70;35.90;;;41.32;nan;100740.38;5009692;28;20620;-67
2023/06/05 09:59:53;;;;;;;3.73;2.27;;;41.30;36.00;;;40.90;nan;100747.13;5009908;28;20649;-71
2023/06/05 10:02:27;;;;;;;2.13;2.03;;;40.80;36.60;;;40.20;nan;100741.19;5026074;28;20624;-69
2023/06/05 10:05:03;;;;;;;2.17;2.07;;;39.90;36.90;;;39.34;nan;100742.69;5008914;28;20656;-68
2023/06/05 10:07:32;;;;;;;2.20;2.00;;;39.00;37.40;;;38.27;nan;100738.19;5016052;28;20640;-70
2023/06/05 10:09:59;;;;;;;2.20;2.10;;;37.90;38.90;;;37.75;nan;100730.78;5028846;28;20666;-70
2023/06/05 10:12:27;;;;;;;2.27;2.17;;;37.10;38.80;;;37.04;nan;100731.31;5016592;28;20657;-69
2023/06/05 10:14:55;;;;;;;2.50;2.30;;;36.40;40.50;;;36.38;nan;100733.53;5011007;28;20654;-68
2023/06/05 10:17:23;;;;;;;2.63;2.43;;;35.70;40.40;;;35.47;nan;100726.59;5008359;28;20637;-68
2023/06/05 10:19:51;;;;;;;2.53;2.43;;;34.90;40.90;;;34.82;nan;100719.97;5012895;28;20644;-73
2023/06/05 10:22:19;;;;;;;2.80;2.60;;;34.20;41.30;;;34.00;nan;100710.91;5029101;28;21280;-69
2023/06/05 10:24:56;;;;;;;2.70;2.50;;;33.50;42.30;;;33.13;nan;100714.03;5018439;28;20641;-69
2023/06/05 10:27:54;;;;;;;2.80;2.70;;;32.70;42.90;;;32.63;nan;100705.34;5009242;28;20644;-71
2023/06/05 10:31:02;;;;;;;2.47;2.37;;;32.10;43.60;;;32.19;nan;100703.69;5021167;28;20668;-70
2023/06/05 10:33:38;;;;;;;2.47;2.30;;;31.60;43.90;;;31.74;nan;100701.94;5030062;28;21215;-71